Time;durP1;ratioP1;P1;durP2;ratioP2;P2;SDS_P1;SDS_P2;PMS_P1;PMS_P2;Temp;Humidity;BMP_temperature;BMP_pressure;BME280_temperature;BME280_humidity;BME280_pressure;Samples;Min_cycle;Max_cycle;Signal;HPM_P1;HPM_P2
2024/03/19 00:03:38;;;;;;;21.02;14.20;;;12.20;91.90;;;;;;10228054;28;21467;-73
2024/03/19 00:08:42;;;;;;;22.58;15.10;;;12.20;92.00;;;;;;10227577;28;20289;-73
2024/03/19 00:13:45;;;;;;;21.63;13.60;;;12.20;91.90;;;;;;10238338;28;20234;-72
2024/03/19 00:18:48;;;;;;;22.67;14.20;;;12.20;91.90;;;;;;10231136;28;20207;-73
2024/03/19 00:23:52;;;;;;;20.98;13.95;;;12.20;92.10;;;;;;10231579;28;20284;-74
2024/03/19 00:28:56;;;;;;;21.20;13.60;;;12.20;92.10;;;;;;10241144;28;20306;-73
2024/03/19 00:33:58;;;;;;;22.33;14.13;;;12.20;92.10;;;;;;10246894;28;20234;-72
2024/03/19 00:39:01;;;;;;;23.05;15.02;;;12.10;92.00;;;;;;10245326;28;20218;-70
2024/03/19 00:44:05;;;;;;;21.30;13.95;;;12.10;92.10;;;;;;10242723;28;20222;-74
2024/03/19 00:49:08;;;;;;;24.95;15.38;;;12.10;92.20;;;;;;10245626;28;20300;-68
2024/03/19 00:54:10;;;;;;;22.33;14.82;;;12.20;92.10;;;;;;10230452;28;20237;-73
2024/03/19 00:59:14;;;;;;;22.17;14.70;;;12.10;92.10;;;;;;10228685;28;21262;-68
2024/03/19 01:04:18;;;;;;;18.10;13.57;;;12.10;92.20;;;;;;10227416;28;20226;-70
2024/03/19 01:09:22;;;;;;;21.50;15.40;;;12.10;92.20;;;;;;10225713;28;20312;-72
2024/03/19 01:14:26;;;;;;;19.67;14.57;;;12.10;92.20;;;;;;10227473;28;20237;-70
2024/03/19 01:19:28;;;;;;;21.25;14.68;;;12.10;92.30;;;;;;10222178;28;20213;-70
2024/03/19 01:24:31;;;;;;;25.77;16.38;;;12.10;92.40;;;;;;10226051;28;20308;-73
2024/03/19 01:29:35;;;;;;;25.48;16.33;;;12.10;92.40;;;;;;10226767;28;20241;-70
2024/03/19 01:34:39;;;;;;;21.02;15.00;;;12.10;92.40;;;;;;10230388;28;20324;-68
2024/03/19 01:39:42;;;;;;;23.75;14.95;;;12.10;92.50;;;;;;10237515;28;20214;-73
2024/03/19 01:44:46;;;;;;;21.95;15.25;;;12.10;92.40;;;;;;10232101;28;20230;-72
2024/03/19 01:49:49;;;;;;;24.08;15.90;;;12.10;92.40;;;;;;10230113;28;20214;-70
2024/03/19 01:54:51;;;;;;;25.02;17.05;;;12.10;92.40;;;;;;10230623;28;20233;-73
2024/03/19 01:59:55;;;;;;;23.08;16.45;;;12.10;92.40;;;;;;10228704;28;20291;-70
2024/03/19 02:04:58;;;;;;;21.02;16.08;;;12.10;92.50;;;;;;10229859;28;20764;-70
2024/03/19 02:10:01;;;;;;;24.33;16.52;;;12.00;92.40;;;;;;10226412;28;20222;-71
2024/03/19 02:15:06;;;;;;;28.10;17.52;;;12.00;92.50;;;;;;10223135;28;20338;-69
2024/03/19 02:20:14;;;;;;;27.48;18.38;;;11.90;92.50;;;;;;10223621;28;20232;-72
2024/03/19 02:25:18;;;;;;;28.15;18.05;;;11.90;92.50;;;;;;10221221;28;20225;-73
2024/03/19 02:30:21;;;;;;;29.33;18.63;;;11.90;92.60;;;;;;10221142;28;20210;-73
2024/03/19 02:35:24;;;;;;;26.88;18.90;;;11.80;92.50;;;;;;10224892;28;20319;-73
2024/03/19 02:40:28;;;;;;;25.58;17.80;;;11.80;92.50;;;;;;10230215;28;20248;-71
2024/03/19 02:45:30;;;;;;;25.90;17.73;;;11.70;92.70;;;;;;10225699;28;20229;-75
2024/03/19 02:50:33;;;;;;;23.63;17.60;;;11.60;92.50;;;;;;10229183;28;21326;-67
2024/03/19 02:55:37;;;;;;;27.25;17.20;;;11.60;92.50;;;;;;10230274;28;20284;-72
2024/03/19 03:00:39;;;;;;;25.10;17.88;;;11.50;92.50;;;;;;10230959;28;20234;-72
2024/03/19 03:05:45;;;;;;;27.15;17.02;;;11.50;92.50;;;;;;10231424;28;20350;-69
2024/03/19 03:10:49;;;;;;;26.83;17.77;;;11.50;92.50;;;;;;10235098;28;20531;-72
2024/03/19 03:15:52;;;;;;;24.67;17.48;;;11.40;92.50;;;;;;10234528;28;20239;-71
2024/03/19 03:20:55;;;;;;;28.10;17.83;;;11.40;92.50;;;;;;10232125;28;20214;-70
2024/03/19 03:25:59;;;;;;;28.27;18.27;;;11.40;92.60;;;;;;10233880;28;20211;-74
2024/03/19 03:31:02;;;;;;;26.67;18.15;;;11.40;92.60;;;;;;10233075;28;20210;-72
2024/03/19 03:36:06;;;;;;;28.90;18.75;;;11.40;92.60;;;;;;10232541;28;20241;-74
2024/03/19 03:41:10;;;;;;;28.48;18.30;;;11.40;92.60;;;;;;10229384;28;20229;-69
2024/03/19 03:46:12;;;;;;;23.50;16.98;;;11.40;92.60;;;;;;10225267;28;20217;-70
2024/03/19 03:51:15;;;;;;;24.45;17.95;;;11.40;92.80;;;;;;10228122;28;21378;-72
2024/03/19 03:56:19;;;;;;;24.67;17.45;;;11.40;92.70;;;;;;10230670;28;21792;-69
2024/03/19 04:01:22;;;;;;;27.10;17.02;;;11.40;92.70;;;;;;10227342;28;20371;-70
2024/03/19 04:06:25;;;;;;;24.05;17.15;;;11.30;92.60;;;;;;10228933;28;20305;-69
2024/03/19 04:11:29;;;;;;;25.80;16.95;;;11.40;92.50;;;;;;10224354;28;20903;-72
2024/03/19 04:16:31;;;;;;;26.50;18.23;;;11.40;92.70;;;;;;10224651;28;20237;-71
2024/03/19 04:21:34;;;;;;;26.58;17.73;;;11.40;92.80;;;;;;10228347;28;20233;-68
2024/03/19 04:26:38;;;;;;;24.52;16.63;;;11.30;92.70;;;;;;10238726;28;20232;-71
2024/03/19 04:31:41;;;;;;;27.92;17.52;;;11.30;92.90;;;;;;10226302;28;20729;-65
2024/03/19 04:36:43;;;;;;;27.80;17.20;;;11.30;92.80;;;;;;10223218;28;20233;-70
2024/03/19 04:41:47;;;;;;;24.48;16.83;;;11.30;92.80;;;;;;10224397;28;20233;-73
2024/03/19 04:46:50;;;;;;;27.15;17.80;;;11.30;92.80;;;;;;10224020;28;22260;-72
2024/03/19 04:51:53;;;;;;;26.30;16.98;;;11.30;92.90;;;;;;10228680;28;20237;-69
2024/03/19 04:56:56;;;;;;;21.88;17.30;;;11.30;92.80;;;;;;10229056;28;20231;-73
2024/03/19 05:01:59;;;;;;;23.88;15.77;;;11.30;93.00;;;;;;10230111;28;20318;-74
2024/03/19 05:07:02;;;;;;;23.50;15.90;;;11.40;93.20;;;;;;10228309;28;21800;-69
2024/03/19 05:12:07;;;;;;;27.23;17.02;;;11.40;92.90;;;;;;10227355;28;21563;-71
2024/03/19 05:17:10;;;;;;;25.20;16.38;;;11.40;93.00;;;;;;10224096;28;20227;-71
2024/03/19 05:22:12;;;;;;;22.65;15.75;;;11.40;93.00;;;;;;10225053;28;20638;-72
2024/03/19 05:27:17;;;;;;;26.67;16.52;;;11.40;93.00;;;;;;10222925;28;20206;-70
2024/03/19 05:32:19;;;;;;;24.50;16.92;;;11.40;93.00;;;;;;10242281;28;20671;-71
2024/03/19 05:37:22;;;;;;;25.23;16.98;;;11.40;93.10;;;;;;10228399;28;20254;-68
2024/03/19 05:42:29;;;;;;;21.73;15.55;;;11.40;93.10;;;;;;10226986;28;20229;-69
2024/03/19 05:47:34;;;;;;;25.73;16.05;;;11.30;93.10;;;;;;10225402;28;20206;-74
2024/03/19 05:52:37;;;;;;;23.35;15.65;;;11.30;93.10;;;;;;10224603;28;20230;-71
2024/03/19 05:57:41;;;;;;;23.48;14.65;;;11.30;93.10;;;;;;10223269;28;22580;-69
2024/03/19 06:02:44;;;;;;;22.42;15.32;;;11.30;93.50;;;;;;10226336;28;20300;-69
2024/03/19 06:07:46;;;;;;;23.55;14.40;;;11.30;93.10;;;;;;10226689;28;20620;-72
2024/03/19 06:12:50;;;;;;;22.75;14.63;;;11.30;93.20;;;;;;10234402;28;21747;-71
2024/03/19 06:17:53;;;;;;;24.85;19.23;;;11.30;93.20;;;;;;10305199;28;20566;-66
2024/03/19 06:22:55;;;;;;;21.27;14.45;;;11.60;94.40;;;;;;10287860;28;20317;-69
2024/03/19 06:27:59;;;;;;;21.15;13.55;;;11.60;93.70;;;;;;10299277;28;20230;-66
2024/03/19 06:33:02;;;;;;;21.88;13.63;;;11.60;93.50;;;;;;10305763;28;20245;-67
2024/03/19 06:38:05;;;;;;;20.45;12.27;;;11.70;93.30;;;;;;10313056;28;20307;-71
2024/03/19 06:43:09;;;;;;;21.23;12.05;;;11.70;93.30;;;;;;10292926;28;20234;-64
2024/03/19 06:48:12;;;;;;;18.48;12.10;;;11.70;93.30;;;;;;10318217;28;20221;-64
2024/03/19 06:53:15;;;;;;;19.27;11.75;;;11.70;93.30;;;;;;10316266;28;20229;-65
2024/03/19 06:58:19;;;;;;;16.70;11.15;;;11.80;93.20;;;;;;10319585;28;20913;-67
2024/03/19 07:03:22;;;;;;;21.08;12.05;;;11.80;93.20;;;;;;10321854;28;20283;-66
2024/03/19 07:08:25;;;;;;;19.30;11.88;;;11.90;93.20;;;;;;10301413;28;20632;-67
2024/03/19 07:13:30;;;;;;;20.75;12.15;;;11.90;93.20;;;;;;10263352;28;20348;-68
2024/03/19 07:18:33;;;;;;;19.83;12.48;;;11.90;93.10;;;;;;10226811;28;20319;-62
2024/03/19 07:23:36;;;;;;;15.73;12.20;;;12.00;93.10;;;;;;10231923;28;20226;-64
2024/03/19 07:28:40;;;;;;;18.50;13.07;;;12.10;93.20;;;;;;10235221;28;20205;-65
2024/03/19 07:33:43;;;;;;;16.17;11.70;;;12.10;93.10;;;;;;10232937;28;20297;-65
2024/03/19 07:38:45;;;;;;;20.08;13.05;;;12.20;93.10;;;;;;10232637;28;20324;-61
2024/03/19 07:43:49;;;;;;;18.70;13.48;;;12.30;93.10;;;;;;10232016;28;20332;-61
2024/03/19 07:48:52;;;;;;;19.95;13.50;;;12.40;93.10;;;;;;10234243;28;21789;-64
2024/03/19 07:53:54;;;;;;;21.38;13.38;;;12.50;93.20;;;;;;10237499;28;20238;-64
2024/03/19 07:58:59;;;;;;;22.33;12.98;;;12.60;93.10;;;;;;10238211;28;20297;-64
2024/03/19 08:04:01;;;;;;;21.65;13.93;;;12.70;93.10;;;;;;10239762;28;20307;-64
2024/03/19 08:09:04;;;;;;;19.55;13.10;;;12.80;93.10;;;;;;10238449;28;20210;-64
2024/03/19 08:14:08;;;;;;;25.38;14.27;;;12.90;93.10;;;;;;10240054;28;20647;-64
2024/03/19 08:19:10;;;;;;;22.13;14.77;;;13.00;93.10;;;;;;10239919;28;20237;-63
2024/03/19 08:24:14;;;;;;;23.73;14.38;;;13.10;93.10;;;;;;10241527;28;21007;-64
2024/03/19 08:29:18;;;;;;;19.85;13.60;;;13.20;93.00;;;;;;10235558;28;20292;-64
2024/03/19 08:34:20;;;;;;;19.10;13.48;;;13.40;93.00;;;;;;10234691;28;20225;-64
2024/03/19 08:39:24;;;;;;;21.35;13.07;;;13.50;92.90;;;;;;10245669;28;20217;-65
2024/03/19 08:44:29;;;;;;;23.38;13.88;;;13.60;92.90;;;;;;10244046;28;20241;-63
2024/03/19 08:49:32;;;;;;;28.60;14.23;;;13.70;93.00;;;;;;10238295;28;20206;-64
2024/03/19 08:54:34;;;;;;;20.55;12.77;;;13.90;92.90;;;;;;10239405;28;20229;-64
2024/03/19 08:59:38;;;;;;;20.73;12.50;;;14.00;92.90;;;;;;10238051;28;20790;-65
2024/03/19 09:04:41;;;;;;;16.10;8.73;;;14.20;92.80;;;;;;10238032;28;21839;-62
2024/03/19 09:09:45;;;;;;;22.55;11.40;;;14.30;92.70;;;;;;10236898;28;20202;-63
2024/03/19 09:14:49;;;;;;;17.38;10.50;;;14.50;92.70;;;;;;10235461;28;20260;-62
2024/03/19 09:19:51;;;;;;;15.93;9.50;;;14.60;92.70;;;;;;10234563;28;20570;-63
2024/03/19 09:24:54;;;;;;;12.10;7.25;;;14.70;92.60;;;;;;10233015;28;21270;-63
2024/03/19 09:30:00;;;;;;;9.75;6.50;;;14.80;92.50;;;;;;10232279;28;20211;-64
2024/03/19 09:35:03;;;;;;;9.65;6.05;;;15.00;92.40;;;;;;10232668;28;20888;-64
2024/03/19 09:40:10;;;;;;;10.88;5.45;;;15.00;92.30;;;;;;10238623;28;20209;-63
2024/03/19 09:45:27;;;;;;;8.48;5.35;;;15.10;92.20;;;;;;10232808;28;20237;-64
2024/03/19 09:50:30;;;;;;;6.88;3.90;;;15.30;92.10;;;;;;10235910;28;21407;-63
2024/03/19 09:55:33;;;;;;;9.75;5.25;;;15.40;92.10;;;;;;10236874;28;20619;-63
2024/03/19 10:00:37;;;;;;;8.68;4.55;;;15.50;91.90;;;;;;10235012;28;20213;-63
2024/03/19 10:05:40;;;;;;;8.70;4.10;;;15.60;91.90;;;;;;10224406;28;20327;-63
2024/03/19 10:10:46;;;;;;;5.85;3.60;;;15.70;91.70;;;;;;10225181;28;20263;-62
2024/03/19 10:15:52;;;;;;;6.13;3.50;;;15.80;91.60;;;;;;10228068;28;20230;-67
2024/03/19 10:20:56;;;;;;;5.65;2.70;;;15.90;91.50;;;;;;10228828;28;20214;-66
2024/03/19 10:25:58;;;;;;;3.88;2.45;;;16.00;91.30;;;;;;10224094;28;20206;-68
2024/03/19 10:31:03;;;;;;;5.47;2.25;;;16.10;91.30;;;;;;10224463;28;20292;-69
2024/03/19 10:36:07;;;;;;;6.40;2.83;;;16.20;91.00;;;;;;10227421;28;20230;-62
2024/03/19 10:41:09;;;;;;;5.93;2.25;;;16.20;90.80;;;;;;10224298;28;20849;-64
2024/03/19 10:46:14;;;;;;;6.97;2.30;;;16.20;90.70;;;;;;10225079;28;20219;-65
2024/03/19 10:51:17;;;;;;;4.65;1.88;;;16.30;90.50;;;;;;10221211;28;20246;-64
2024/03/19 10:56:21;;;;;;;4.10;1.50;;;16.40;90.20;;;;;;10229278;28;20229;-64
2024/03/19 11:01:26;;;;;;;6.30;2.03;;;16.50;89.80;;;;;;10229684;28;20312;-64
2024/03/19 11:06:29;;;;;;;5.32;1.27;;;16.70;89.40;;;;;;10226018;28;20210;-64
2024/03/19 11:11:35;;;;;;;4.80;1.88;;;16.80;89.00;;;;;;10228420;28;20238;-63
2024/03/19 11:16:40;;;;;;;4.63;1.55;;;16.80;87.60;;;;;;10228940;28;20230;-63
2024/03/19 11:21:44;;;;;;;4.78;1.42;;;17.00;88.40;;;;;;10228899;28;20295;-64
2024/03/19 11:26:47;;;;;;;4.57;1.92;;;17.10;87.60;;;;;;10226978;28;20213;-63
2024/03/19 11:31:51;;;;;;;3.13;1.52;;;17.20;87.30;;;;;;10230040;28;20288;-65
2024/03/19 11:36:54;;;;;;;3.58;2.00;;;17.30;85.70;;;;;;10228926;28;20292;-62
2024/03/19 11:41:58;;;;;;;3.88;1.83;;;17.40;85.70;;;;;;10226734;28;21398;-63
2024/03/19 11:47:02;;;;;;;3.67;1.60;;;17.40;86.80;;;;;;10226280;28;20894;-64
2024/03/19 11:52:07;;;;;;;4.25;1.67;;;17.60;86.50;;;;;;10226304;28;20225;-70
2024/03/19 11:57:16;;;;;;;4.53;1.45;;;17.70;86.80;;;;;;10223973;28;21352;-69
2024/03/19 12:02:20;;;;;;;4.53;1.60;;;17.80;86.00;;;;;;10221211;28;20312;-69
2024/03/19 12:07:25;;;;;;;4.32;1.58;;;18.00;86.20;;;;;;10224035;28;20300;-68
2024/03/19 12:12:28;;;;;;;4.22;1.50;;;18.30;86.10;;;;;;10220602;28;20315;-68
2024/03/19 12:17:33;;;;;;;3.15;1.40;;;18.50;84.50;;;;;;10220491;28;20233;-69
2024/03/19 12:22:35;;;;;;;4.25;1.35;;;18.70;84.70;;;;;;10221291;28;20245;-69
2024/03/19 12:27:40;;;;;;;2.88;1.33;;;18.90;82.80;;;;;;10220747;28;20217;-67
2024/03/19 12:32:48;;;;;;;2.50;1.20;;;19.10;83.60;;;;;;10220996;28;20789;-69
2024/03/19 12:37:51;;;;;;;3.80;1.30;;;19.50;83.00;;;;;;10220286;28;20319;-69
2024/03/19 12:42:56;;;;;;;3.78;1.35;;;19.80;82.10;;;;;;10221099;28;20233;-68
2024/03/19 12:48:04;;;;;;;3.53;1.33;;;19.80;82.50;;;;;;10223098;28;20307;-67
2024/03/19 12:53:07;;;;;;;3.63;1.20;;;20.10;82.00;;;;;;10289213;28;20647;-68
2024/03/19 12:58:09;;;;;;;3.30;1.30;;;19.70;78.60;;;;;;10294579;28;20228;-72
2024/03/19 13:03:13;;;;;;;3.33;1.45;;;19.20;77.40;;;;;;10295830;28;20232;-70
2024/03/19 13:08:16;;;;;;;2.10;1.40;;;18.90;79.40;;;;;;10296918;28;20196;-69
2024/03/19 13:13:18;;;;;;;5.10;1.40;;;19.10;80.20;;;;;;10286354;28;20228;-65
2024/03/19 13:18:22;;;;;;;2.28;1.40;;;19.10;79.20;;;;;;10291359;28;20227;-62
2024/03/19 13:23:25;;;;;;;4.28;1.58;;;19.10;79.30;;;;;;10296026;28;20224;-63
2024/03/19 13:28:28;;;;;;;4.32;1.40;;;18.90;76.40;;;;;;10293874;28;21750;-64
2024/03/19 13:33:32;;;;;;;3.97;1.63;;;18.70;78.50;;;;;;10292831;28;20228;-63
2024/03/19 13:38:35;;;;;;;3.63;1.45;;;18.60;76.60;;;;;;10292502;28;20240;-63
2024/03/19 13:43:38;;;;;;;2.53;1.30;;;18.60;77.70;;;;;;10297155;28;20806;-65
2024/03/19 13:48:43;;;;;;;4.35;1.70;;;18.60;77.50;;;;;;10296534;28;20204;-62
2024/03/19 13:53:49;;;;;;;5.38;1.75;;;18.60;75.90;;;;;;10296398;28;20328;-64
2024/03/19 13:58:52;;;;;;;3.30;1.40;;;18.60;74.90;;;;;;10295121;28;20305;-64
2024/03/19 14:03:57;;;;;;;2.53;1.27;;;18.60;75.30;;;;;;10292573;28;22129;-63
2024/03/19 14:09:00;;;;;;;3.38;1.45;;;18.60;76.00;;;;;;10298543;28;20205;-65
2024/03/19 14:14:05;;;;;;;4.45;1.50;;;18.50;76.10;;;;;;10297697;28;20338;-64
2024/03/19 14:19:14;;;;;;;4.13;1.55;;;18.40;76.50;;;;;;10298995;28;20293;-64
2024/03/19 14:24:16;;;;;;;3.70;1.35;;;18.30;76.80;;;;;;10298559;28;20236;-64
2024/03/19 14:29:19;;;;;;;2.67;1.60;;;18.30;77.30;;;;;;10298077;28;20884;-64
2024/03/19 14:34:23;;;;;;;2.05;1.33;;;18.20;77.00;;;;;;10303158;28;20653;-65
2024/03/19 14:39:26;;;;;;;2.35;1.50;;;18.00;75.40;;;;;;10300006;28;20236;-64
2024/03/19 14:44:28;;;;;;;3.92;1.42;;;17.90;76.80;;;;;;10301589;28;21290;-63
2024/03/19 14:49:33;;;;;;;3.63;1.30;;;17.90;75.20;;;;;;10303333;28;20857;-65
2024/03/19 14:54:36;;;;;;;4.13;1.38;;;17.90;75.40;;;;;;10306320;28;20228;-64
2024/03/19 14:59:38;;;;;;;4.75;1.88;;;17.90;75.90;;;;;;10295519;28;20232;-64
2024/03/19 15:04:42;;;;;;;3.30;1.15;;;18.00;76.00;;;;;;10302872;28;20754;-64
2024/03/19 15:09:45;;;;;;;3.58;1.30;;;18.10;75.40;;;;;;10301441;28;20636;-64
2024/03/19 15:14:49;;;;;;;3.80;1.38;;;18.30;75.40;;;;;;10297667;28;21353;-64
2024/03/19 15:19:55;;;;;;;4.47;1.75;;;18.40;74.00;;;;;;10295383;28;21006;-64
2024/03/19 15:24:57;;;;;;;3.03;1.00;;;18.40;73.80;;;;;;10314108;28;20237;-63
2024/03/19 15:30:00;;;;;;;2.13;1.30;;;18.50;74.50;;;;;;10313723;28;20871;-66
2024/03/19 15:35:06;;;;;;;2.17;1.05;;;18.50;75.20;;;;;;10294952;28;20237;-63
2024/03/19 15:40:11;;;;;;;4.63;1.40;;;18.40;74.70;;;;;;10306545;28;20285;-64
2024/03/19 15:45:13;;;;;;;3.10;1.13;;;18.40;74.70;;;;;;10298014;28;20240;-64
2024/03/19 15:50:18;;;;;;;2.45;1.10;;;18.40;75.00;;;;;;10299871;28;20692;-66
2024/03/19 15:55:20;;;;;;;3.33;1.20;;;18.40;74.60;;;;;;10297112;28;20221;-64
2024/03/19 16:00:23;;;;;;;5.10;1.40;;;18.30;74.40;;;;;;10299296;28;20258;-65
2024/03/19 16:05:28;;;;;;;5.65;1.70;;;18.30;74.60;;;;;;10297084;28;20350;-66
2024/03/19 16:10:31;;;;;;;1.65;1.23;;;18.20;74.00;;;;;;10298161;28;20270;-71
2024/03/19 16:15:33;;;;;;;4.70;1.50;;;18.10;73.50;;;;;;10298515;28;20305;-63
2024/03/19 16:20:41;;;;;;;3.60;1.20;;;18.00;73.90;;;;;;10299193;28;20228;-63
2024/03/19 16:25:44;;;;;;;2.53;1.15;;;18.00;73.70;;;;;;10294905;28;20685;-64
2024/03/19 16:30:47;;;;;;;3.78;1.50;;;18.00;74.20;;;;;;10294104;28;20209;-65
2024/03/19 16:35:51;;;;;;;1.85;1.25;;;17.90;73.90;;;;;;10290107;28;20258;-63
2024/03/19 16:40:54;;;;;;;2.85;1.05;;;17.90;74.30;;;;;;10291051;28;20235;-64
2024/03/19 16:45:56;;;;;;;3.85;1.45;;;17.80;74.40;;;;;;10288668;28;20228;-63
2024/03/19 16:51:00;;;;;;;2.72;1.20;;;17.80;74.30;;;;;;10285296;28;20390;-65
2024/03/19 16:56:03;;;;;;;3.53;1.48;;;17.80;74.50;;;;;;10293438;28;21632;-64
2024/03/19 17:01:05;;;;;;;4.60;1.48;;;17.70;74.80;;;;;;10295210;28;20313;-63
2024/03/19 17:06:09;;;;;;;3.10;1.60;;;17.60;74.70;;;;;;10298281;28;20908;-64
2024/03/19 17:11:15;;;;;;;3.22;1.60;;;17.50;74.40;;;;;;10307106;28;20529;-63
2024/03/19 17:16:18;;;;;;;5.05;1.50;;;17.30;74.70;;;;;;10292758;28;20200;-63
2024/03/19 17:21:22;;;;;;;3.65;1.45;;;17.30;74.90;;;;;;10299417;28;20714;-63
2024/03/19 17:26:25;;;;;;;2.83;1.80;;;17.20;75.30;;;;;;10293406;28;20273;-65
2024/03/19 17:31:27;;;;;;;3.88;1.80;;;17.00;75.40;;;;;;10297002;28;20716;-64
2024/03/19 17:36:31;;;;;;;5.55;2.00;;;16.90;75.60;;;;;;10298681;28;20265;-63
2024/03/19 17:41:34;;;;;;;4.53;1.67;;;16.80;75.90;;;;;;10294516;28;20244;-64
2024/03/19 17:46:37;;;;;;;4.50;1.80;;;16.70;76.30;;;;;;10292949;28;20913;-64
2024/03/19 17:51:41;;;;;;;4.65;1.50;;;16.60;76.50;;;;;;10289216;28;20310;-64
2024/03/19 17:56:44;;;;;;;2.85;1.38;;;16.50;76.40;;;;;;10299152;28;21660;-63
2024/03/19 18:01:46;;;;;;;3.97;1.70;;;16.40;76.50;;;;;;10296094;28;20237;-62
2024/03/19 18:06:50;;;;;;;3.90;2.13;;;16.20;76.40;;;;;;10299434;28;21454;-63
2024/03/19 18:11:53;;;;;;;4.03;2.15;;;16.20;76.50;;;;;;10302285;28;20482;-63
2024/03/19 18:16:55;;;;;;;3.60;2.20;;;16.10;76.70;;;;;;10311337;28;20254;-61
2024/03/19 18:21:59;;;;;;;6.68;3.58;;;16.00;76.80;;;;;;10299987;28;20877;-62
2024/03/19 18:27:02;;;;;;;6.70;3.05;;;15.90;76.70;;;;;;10306425;28;20208;-61
2024/03/19 18:32:06;;;;;;;5.25;3.40;;;15.80;76.80;;;;;;10306793;28;20258;-60
2024/03/19 18:37:10;;;;;;;6.07;3.25;;;15.70;77.00;;;;;;10305927;28;20208;-61
2024/03/19 18:42:13;;;;;;;5.95;3.38;;;15.60;77.10;;;;;;10306381;28;20313;-60
2024/03/19 18:47:15;;;;;;;5.75;3.53;;;15.50;77.20;;;;;;10310653;28;20270;-62
2024/03/19 18:52:19;;;;;;;6.20;3.53;;;15.40;78.20;;;;;;10304648;28;20236;-62
2024/03/19 18:57:22;;;;;;;6.00;3.88;;;15.30;77.40;;;;;;10304164;28;20258;-63
2024/03/19 19:02:25;;;;;;;8.40;4.70;;;15.20;77.50;;;;;;10304830;28;20281;-62
2024/03/19 19:07:30;;;;;;;10.63;5.40;;;15.20;77.60;;;;;;10304244;28;20213;-62
2024/03/19 19:12:33;;;;;;;9.30;5.78;;;15.10;77.40;;;;;;10302811;28;20788;-66
2024/03/19 19:17:35;;;;;;;9.80;5.90;;;15.00;77.40;;;;;;10298123;28;20209;-65
2024/03/19 19:22:39;;;;;;;9.73;6.15;;;15.00;77.50;;;;;;10299144;28;20305;-66
2024/03/19 19:27:42;;;;;;;10.82;6.60;;;14.90;77.40;;;;;;10302479;28;20467;-65
2024/03/19 19:32:44;;;;;;;10.60;6.03;;;14.90;77.50;;;;;;10302526;28;20648;-64
2024/03/19 19:37:48;;;;;;;7.70;5.53;;;14.80;77.40;;;;;;10300739;28;20630;-66
2024/03/19 19:42:51;;;;;;;8.65;5.28;;;14.80;77.60;;;;;;10305120;28;20283;-66
2024/03/19 19:47:54;;;;;;;10.98;5.72;;;14.70;77.60;;;;;;10298510;28;20208;-65
2024/03/19 19:52:58;;;;;;;9.25;4.95;;;14.70;77.70;;;;;;10296462;28;20232;-66
2024/03/19 19:58:00;;;;;;;8.52;5.22;;;14.60;78.10;;;;;;10293638;28;20236;-65
2024/03/19 20:03:03;;;;;;;8.38;4.78;;;14.50;77.90;;;;;;10296034;28;20325;-65
2024/03/19 20:08:08;;;;;;;8.77;4.85;;;14.50;78.00;;;;;;10298285;28;20352;-65
2024/03/19 20:13:10;;;;;;;8.13;5.00;;;14.40;78.10;;;;;;10291436;28;20228;-65
2024/03/19 20:18:14;;;;;;;9.32;5.00;;;14.40;78.20;;;;;;10302521;28;21819;-65
2024/03/19 20:23:18;;;;;;;7.43;4.53;;;14.40;78.40;;;;;;10301835;28;20293;-65
2024/03/19 20:28:20;;;;;;;10.68;5.18;;;14.30;78.20;;;;;;10300782;28;20270;-65
2024/03/19 20:33:23;;;;;;;11.80;7.00;;;14.30;78.10;;;;;;10299695;28;20300;-66
2024/03/19 20:38:27;;;;;;;14.80;7.72;;;14.40;78.20;;;;;;10299933;28;20241;-65
2024/03/19 20:43:31;;;;;;;12.43;6.70;;;14.30;78.30;;;;;;10302996;28;20235;-67
2024/03/19 20:48:33;;;;;;;9.98;6.82;;;14.30;78.40;;;;;;10299054;28;20270;-65
2024/03/19 20:53:37;;;;;;;9.80;6.32;;;14.30;78.50;;;;;;10299328;28;20410;-65
2024/03/19 20:58:40;;;;;;;8.45;4.65;;;14.30;78.70;;;;;;10301667;28;20829;-65
2024/03/19 21:03:42;;;;;;;9.30;4.93;;;14.30;78.50;;;;;;10299193;28;20286;-66
2024/03/19 21:08:46;;;;;;;9.70;4.82;;;14.30;78.40;;;;;;10303230;28;20209;-66
2024/03/19 21:13:49;;;;;;;10.13;5.05;;;14.30;78.40;;;;;;10300644;28;20255;-66
2024/03/19 21:18:52;;;;;;;9.48;5.00;;;14.20;78.30;;;;;;10298980;28;21394;-66
2024/03/19 21:23:56;;;;;;;7.55;4.63;;;14.30;78.50;;;;;;10295544;28;20785;-65
2024/03/19 21:28:58;;;;;;;7.88;5.07;;;14.20;78.50;;;;;;10302192;28;20353;-64
2024/03/19 21:34:01;;;;;;;8.05;4.63;;;14.20;78.60;;;;;;10292079;28;20220;-65
2024/03/19 21:39:05;;;;;;;7.65;4.00;;;14.20;78.00;;;;;;10291791;28;20228;-65
2024/03/19 21:44:08;;;;;;;6.70;4.13;;;14.20;78.50;;;;;;10291016;28;20243;-67
2024/03/19 21:49:10;;;;;;;9.02;3.85;;;14.10;78.50;;;;;;10302857;28;20258;-66
2024/03/19 21:54:14;;;;;;;7.15;4.03;;;14.10;78.40;;;;;;10299394;28;20291;-64
2024/03/19 21:59:17;;;;;;;7.75;3.50;;;14.10;78.60;;;;;;10300679;28;20228;-65
2024/03/19 22:04:20;;;;;;;4.50;3.05;;;14.00;78.50;;;;;;10296260;28;20232;-65
2024/03/19 22:09:24;;;;;;;4.93;3.03;;;14.00;78.40;;;;;;10317409;28;20573;-64
2024/03/19 22:14:27;;;;;;;5.18;3.35;;;13.90;78.30;;;;;;10296298;28;20691;-65
2024/03/19 22:19:29;;;;;;;6.57;3.70;;;13.90;78.30;;;;;;10296191;28;20232;-64
2024/03/19 22:24:33;;;;;;;5.57;3.70;;;13.90;78.40;;;;;;10295976;28;21295;-65
2024/03/19 22:29:37;;;;;;;6.43;3.75;;;13.80;78.40;;;;;;10294228;28;20291;-65
2024/03/19 22:34:40;;;;;;;4.38;3.38;;;13.80;78.40;;;;;;10295788;28;21561;-65
2024/03/19 22:39:43;;;;;;;5.00;3.45;;;13.80;78.50;;;;;;10292805;28;20225;-66
2024/03/19 22:44:46;;;;;;;6.35;3.70;;;13.80;78.80;;;;;;10292290;28;20240;-64
2024/03/19 22:49:49;;;;;;;5.00;3.38;;;13.70;78.80;;;;;;10298394;28;20204;-65
2024/03/19 22:54:53;;;;;;;5.50;3.25;;;13.60;78.80;;;;;;10303950;28;20286;-65
2024/03/19 22:59:55;;;;;;;6.05;3.28;;;13.50;78.80;;;;;;10306898;28;20302;-65
2024/03/19 23:04:59;;;;;;;5.38;3.53;;;13.50;78.90;;;;;;10302346;28;20236;-66
2024/03/19 23:10:03;;;;;;;6.00;3.47;;;13.50;79.10;;;;;;10302119;28;20196;-65
2024/03/19 23:15:09;;;;;;;6.40;3.55;;;13.40;79.10;;;;;;10303304;28;21463;-65
2024/03/19 23:20:13;;;;;;;7.72;4.07;;;13.40;79.10;;;;;;10299450;28;20500;-64
2024/03/19 23:25:17;;;;;;;7.32;3.28;;;13.30;79.30;;;;;;10302429;28;20231;-66
2024/03/19 23:30:20;;;;;;;5.45;3.22;;;13.30;79.40;;;;;;10302188;28;21851;-65
2024/03/19 23:35:22;;;;;;;6.55;3.42;;;13.20;79.10;;;;;;10299795;28;20232;-64
2024/03/19 23:40:27;;;;;;;6.63;3.78;;;13.10;79.60;;;;;;10298468;28;20313;-66
2024/03/19 23:45:29;;;;;;;7.55;3.50;;;13.00;79.50;;;;;;10298009;28;20314;-65
2024/03/19 23:50:32;;;;;;;4.88;3.40;;;13.00;79.40;;;;;;10299772;28;21645;-65
2024/03/19 23:55:37;;;;;;;3.97;2.88;;;13.00;79.50;;;;;;10300163;28;21444;-67
